Flight Track Log - Related Links

Times and Time Zones

All times are in EDT time to prevent confusion due to time zone crossing. See the UCA3599 flight status page for this flight to view local times or setup timezone preferences in your user account.

Time Position Orientation Groundspeed Altitude Reporting Facility
EDT Latitude Longitude Course Direction KTS MPH feet Rate Location/Type
Thu 06:16:57 AM 42.1786 -75.9589 211° Southwest 258 297 3,400  Level New Center
Thu 06:17:57 AM 42.1392 -75.9558 177° South 141 162 4,600 1,250 Climbing New Center
Thu 06:18:57 AM 42.1061 -75.9981 223° Southwest 141 162 5,900 1,350 Climbing New Center
Thu 06:19:57 AM 42.0711 -76.0372 220° Southwest 151 174 7,300 1,050 Climbing New Center
Thu 06:20:57 AM 42.0314 -76.0842 221° Southwest 172 198 8,000 950 Climbing New Center
Thu 06:21:57 AM 41.9978 -76.1400 231° Southwest 191 220 9,200 1,250 Climbing New Center
Thu 06:22:00 AM 41.8338 -76.1577 211° Southwest  Level Estimated
Thu 06:22:57 AM 41.9664 -76.1878 229° Southwest 197 227 10,500  Level New Center
Thu 06:23:57 AM 41.9328 -76.2381 228° Southwest 197 227 11,800 1,300 Climbing New Center
Thu 06:24:57 AM 41.8950 -76.2933 227° Southwest 191 220 13,100 1,250 Climbing New Center
Thu 06:25:57 AM 41.8592 -76.3433 226° Southwest 191 220 14,300 1,100 Climbing New Center
Thu 06:26:57 AM 41.8236 -76.3906 225° Southwest 191 220 15,300 850 Climbing New Center
Thu 06:27:57 AM 41.7861 -76.4372 223° Southwest 186 214 16,000 350 Climbing New Center
Thu 06:28:57 AM 41.7378 -76.4917 220° Southwest 211 243 16,000 500 Level New Center
Thu 06:29:57 AM 41.6742 -76.5111 193° South 229 264 17,000 500 Climbing New Center
Thu 06:30:57 AM 41.6106 -76.5364 197° South 234 269 17,000  Level New Center
Thu 06:31:57 AM 41.5492 -76.5586 195° South 250 288 17,000  Level New Center
Thu 06:32:57 AM 41.4811 -76.5833 195° South 255 293 17,000  Level New Center
Thu 06:33:57 AM 41.4072 -76.6072 194° South 250 288 17,000  Level New Center
Thu 06:34:57 AM 41.3392 -76.6344 197° South 250 288 17,000  Level New Center
Thu 06:35:57 AM 41.2714 -76.6564 194° South 250 288 17,000  Level New Center
Thu 06:36:57 AM 41.2117 -76.6814 197° South 250 288 17,000  Level New Center
Thu 06:37:57 AM 41.1439 -76.7086 197° South 250 288 17,000  Level New Center
Thu 06:38:57 AM 41.0758 -76.7331 195° South 250 288 17,000  Level New Center
Thu 06:39:57 AM 41.0081 -76.7572 195° South 250 288 17,000  Level New Center
Thu 06:40:57 AM 40.9358 -76.7811 194° South 250 288 17,000 -50 Level New Center
Thu 06:41:57 AM 40.8658 -76.8078 196° South 250 288 16,900 -50 Descending New Center
Thu 06:42:57 AM 40.7978 -76.8319 195° South 256 295 16,900  Level New Center
Thu 06:43:57 AM 40.7319 -76.8564 196° South 251 289 16,900 50 Level New Center
Thu 06:44:57 AM 40.6619 -76.8803 195° South 251 289 17,000 50 Climbing New Center
Thu 06:45:57 AM 40.5981 -76.9047 196° South 251 289 17,000  Level New Center
Thu 06:46:57 AM 40.5281 -76.9283 194° South 251 289 17,000  Level New Center
Thu 06:47:57 AM 40.4603 -76.9525 195° South 251 289 17,000  Level New Center
Thu 06:48:57 AM 40.3922 -76.9764 195° South 251 289 17,000 -100 Level New Center
Thu 06:49:57 AM 40.3242 -77.0028 196° South 251 289 16,800 -550 Descending New Center
Thu 06:50:57 AM 40.2603 -77.0269 196° South 257 296 15,900 -980 Descending New Center
Thu 06:53:19 AM 40.0833 -77.0833 194° South 272 313 13,500 -1,010 Descending Potomac TRACON
Thu 06:54:19 AM 40.0000 -77.1167 197° South 273 314 12,500 -1,000 Descending Potomac TRACON
Thu 06:55:13 AM 39.9333 -77.1333 191° South 272 313 11,600 -1,000 Descending Potomac TRACON
Thu 06:56:13 AM 39.8667 -77.1500 191° South 267 307 10,600 -1,000 Descending Potomac TRACON
Thu 06:57:13 AM 39.8000 -77.1833 201° Southwest 260 299 9,600 -1,000 Descending Potomac TRACON
Thu 06:58:13 AM 39.7333 -77.2000 191° South 257 296 8,600 -1,000 Descending Potomac TRACON
Thu 06:59:07 AM 39.6667 -77.2500 210° Southwest 234 269 7,700 -1,000 Descending Potomac TRACON
Thu 07:00:01 AM 39.6333 -77.2833 218° Southwest 234 269 6,800 -1,000 Descending Potomac TRACON
Thu 07:01:01 AM 39.5833 -77.3500 226° Southwest 233 268 5,800 -1,000 Descending Potomac TRACON
Thu 07:01:55 AM 39.5333 -77.3833 207° Southwest 226 260 4,900 -947 Descending Potomac TRACON
Thu 07:02:55 AM 39.4833 -77.4167 207° Southwest 224 258 4,000 -450 Descending Potomac TRACON
Thu 07:03:55 AM 39.4167 -77.4333 191° South 218 251 4,000 -105 Level Potomac TRACON
Thu 07:04:49 AM 39.3667 -77.4333 180° South 224 258 3,800 -474 Descending Potomac TRACON
Thu 07:05:49 AM 39.3000 -77.4333 180° South 225 259 3,100 -421 Descending Potomac TRACON
Thu 07:06:43 AM 39.2500 -77.4333 180° South 192 221 3,000 -53 Descending Potomac TRACON
Thu 07:07:43 AM 39.2000 -77.4333 180° South 169 194 3,000  Level Potomac TRACON
Thu 07:08:43 AM 39.1500 -77.4333 180° South 169 194 3,000  Level Potomac TRACON
Thu 07:09:43 AM 39.1000 -77.4333 180° South 169 194 3,000 -350 Level Potomac TRACON
Thu 07:10:43 AM 39.0667 -77.4333 180° South 167 192 2,300 -700 Descending Potomac TRACON
Thu 07:11:43 AM 39.0167 -77.4333 180° South 134 154 1,600 -632 Descending Potomac TRACON
Thu 07:12:37 AM 39.0000 -77.4333 180° South 99 114 1,100 -526 Descending Potomac TRACON
Thu 07:13:37 AM 38.9667 -77.4333 180° South 104 120 600 -500 Descending Potomac TRACON

Login

Don't have an account? Register now (free) for customized features, flight alerts, and more!